sensor_id;sensor_type;location;lat;lon;timestamp;temperature;humidity
9425;DHT22;17139;52.140;11.636;2022-09-17T00:00:34;11.50;53.50
9425;DHT22;17139;52.140;11.636;2022-09-17T00:03:02;11.40;53.40
9425;DHT22;17139;52.140;11.636;2022-09-17T00:05:29;11.40;53.50
9425;DHT22;17139;52.140;11.636;2022-09-17T00:07:56;11.90;53.80
9425;DHT22;17139;52.140;11.636;2022-09-17T00:10:23;11.80;53.10
9425;DHT22;17139;52.140;11.636;2022-09-17T00:12:50;12.10;53.60
9425;DHT22;17139;52.140;11.636;2022-09-17T00:15:17;11.90;53.20
9425;DHT22;17139;52.140;11.636;2022-09-17T00:17:44;11.70;53.20
9425;DHT22;17139;52.140;11.636;2022-09-17T00:20:13;11.60;53.50
9425;DHT22;17139;52.140;11.636;2022-09-17T00:22:39;11.50;53.60
9425;DHT22;17139;52.140;11.636;2022-09-17T00:25:07;11.50;53.70
9425;DHT22;17139;52.140;11.636;2022-09-17T00:27:34;11.40;53.60
9425;DHT22;17139;52.140;11.636;2022-09-17T00:30:01;11.40;53.60
9425;DHT22;17139;52.140;11.636;2022-09-17T00:32:28;11.30;53.80
9425;DHT22;17139;52.140;11.636;2022-09-17T00:34:55;11.80;54.20
9425;DHT22;17139;52.140;11.636;2022-09-17T00:37:23;11.70;53.50
9425;DHT22;17139;52.140;11.636;2022-09-17T00:39:50;12.30;53.90
9425;DHT22;17139;52.140;11.636;2022-09-17T00:42:18;12.10;53.80
9425;DHT22;17139;52.140;11.636;2022-09-17T00:44:48;11.90;53.40
9425;DHT22;17139;52.140;11.636;2022-09-17T00:47:22;11.70;53.70
9425;DHT22;17139;52.140;11.636;2022-09-17T00:49:54;11.70;53.80
9425;DHT22;17139;52.140;11.636;2022-09-17T00:52:27;11.60;53.90
9425;DHT22;17139;52.140;11.636;2022-09-17T00:55:00;11.60;54.00
9425;DHT22;17139;52.140;11.636;2022-09-17T00:57:29;11.60;54.10
9425;DHT22;17139;52.140;11.636;2022-09-17T00:59:57;11.50;54.00
9425;DHT22;17139;52.140;11.636;2022-09-17T01:02:24;11.60;54.10
9425;DHT22;17139;52.140;11.636;2022-09-17T01:04:52;11.70;54.40
9425;DHT22;17139;52.140;11.636;2022-09-17T01:07:34;11.70;54.00
9425;DHT22;17139;52.140;11.636;2022-09-17T01:10:12;11.70;54.10
9425;DHT22;17139;52.140;11.636;2022-09-17T01:12:55;11.70;54.10
9425;DHT22;17139;52.140;11.636;2022-09-17T01:15:33;11.60;54.10
9425;DHT22;17139;52.140;11.636;2022-09-17T01:18:19;11.60;54.10
9425;DHT22;17139;52.140;11.636;2022-09-17T01:21:15;11.60;54.10
9425;DHT22;17139;52.140;11.636;2022-09-17T01:27:25;11.50;54.10
9425;DHT22;17139;52.140;11.636;2022-09-17T01:30:19;12.30;54.30
9425;DHT22;17139;52.140;11.636;2022-09-17T01:32:53;12.00;53.70
9425;DHT22;17139;52.140;11.636;2022-09-17T01:35:32;11.80;54.10
9425;DHT22;17139;52.140;11.636;2022-09-17T01:38:02;11.70;54.10
9425;DHT22;17139;52.140;11.636;2022-09-17T01:40:39;11.60;54.20
9425;DHT22;17139;52.140;11.636;2022-09-17T01:43:09;11.60;54.40
9425;DHT22;17139;52.140;11.636;2022-09-17T01:45:41;11.50;54.40
9425;DHT22;17139;52.140;11.636;2022-09-17T01:48:13;11.50;54.40
9425;DHT22;17139;52.140;11.636;2022-09-17T01:50:47;11.50;54.40
9425;DHT22;17139;52.140;11.636;2022-09-17T01:53:17;11.40;54.40
9425;DHT22;17139;52.140;11.636;2022-09-17T01:55:48;11.90;55.30
9425;DHT22;17139;52.140;11.636;2022-09-17T01:58:20;11.80;55.00
9425;DHT22;17139;52.140;11.636;2022-09-17T02:00:51;12.30;55.30
9425;DHT22;17139;52.140;11.636;2022-09-17T02:03:24;12.10;54.50
9425;DHT22;17139;52.140;11.636;2022-09-17T02:05:59;11.80;54.50
9425;DHT22;17139;52.140;11.636;2022-09-17T02:08:29;11.70;54.70
9425;DHT22;17139;52.140;11.636;2022-09-17T02:11:06;11.60;54.90
9425;DHT22;17139;52.140;11.636;2022-09-17T02:13:39;11.50;54.90
9425;DHT22;17139;52.140;11.636;2022-09-17T02:16:11;11.50;55.00
9425;DHT22;17139;52.140;11.636;2022-09-17T02:18:45;11.50;55.00
9425;DHT22;17139;52.140;11.636;2022-09-17T02:21:17;11.60;55.30
9425;DHT22;17139;52.140;11.636;2022-09-17T02:23:53;11.50;54.80
9425;DHT22;17139;52.140;11.636;2022-09-17T02:26:25;11.90;55.60
9425;DHT22;17139;52.140;11.636;2022-09-17T02:28:57;11.80;55.40
9425;DHT22;17139;52.140;11.636;2022-09-17T02:31:24;11.60;54.90
9425;DHT22;17139;52.140;11.636;2022-09-17T02:33:56;11.50;55.00
9425;DHT22;17139;52.140;11.636;2022-09-17T02:36:26;11.40;55.20
9425;DHT22;17139;52.140;11.636;2022-09-17T02:38:59;11.40;55.30
9425;DHT22;17139;52.140;11.636;2022-09-17T02:41:35;11.30;55.30
9425;DHT22;17139;52.140;11.636;2022-09-17T02:44:12;11.30;55.30
9425;DHT22;17139;52.140;11.636;2022-09-17T02:46:52;11.40;55.70
9425;DHT22;17139;52.140;11.636;2022-09-17T02:49:45;11.40;55.30
9425;DHT22;17139;52.140;11.636;2022-09-17T02:52:22;11.30;55.20
9425;DHT22;17139;52.140;11.636;2022-09-17T02:54:59;11.20;55.20
9425;DHT22;17139;52.140;11.636;2022-09-17T02:57:32;11.20;55.30
9425;DHT22;17139;52.140;11.636;2022-09-17T03:00:05;11.20;55.90
9425;DHT22;17139;52.140;11.636;2022-09-17T03:02:38;11.20;55.30
9425;DHT22;17139;52.140;11.636;2022-09-17T03:05:09;11.20;55.20
9425;DHT22;17139;52.140;11.636;2022-09-17T03:07:37;11.20;55.10
9425;DHT22;17139;52.140;11.636;2022-09-17T03:10:05;11.30;55.00
9425;DHT22;17139;52.140;11.636;2022-09-17T03:12:33;11.40;55.20
9425;DHT22;17139;52.140;11.636;2022-09-17T03:15:00;11.50;55.50
9425;DHT22;17139;52.140;11.636;2022-09-17T03:17:28;12.00;55.40
9425;DHT22;17139;52.140;11.636;2022-09-17T03:19:55;11.90;54.60
9425;DHT22;17139;52.140;11.636;2022-09-17T03:22:23;11.60;54.70
9425;DHT22;17139;52.140;11.636;2022-09-17T03:24:50;11.50;54.90
9425;DHT22;17139;52.140;11.636;2022-09-17T03:27:17;11.40;55.00
9425;DHT22;17139;52.140;11.636;2022-09-17T03:29:44;11.40;55.10
9425;DHT22;17139;52.140;11.636;2022-09-17T03:32:11;11.30;55.10
9425;DHT22;17139;52.140;11.636;2022-09-17T03:34:38;11.30;55.10
9425;DHT22;17139;52.140;11.636;2022-09-17T03:37:04;11.40;55.10
9425;DHT22;17139;52.140;11.636;2022-09-17T03:39:33;11.40;54.80
9425;DHT22;17139;52.140;11.636;2022-09-17T03:42:00;11.60;55.40
9425;DHT22;17139;52.140;11.636;2022-09-17T03:44:26;11.50;54.80
9425;DHT22;17139;52.140;11.636;2022-09-17T03:46:53;11.50;55.10
9425;DHT22;17139;52.140;11.636;2022-09-17T03:49:21;11.40;55.00
9425;DHT22;17139;52.140;11.636;2022-09-17T03:51:48;11.30;55.10
9425;DHT22;17139;52.140;11.636;2022-09-17T03:54:15;11.30;55.20
9425;DHT22;17139;52.140;11.636;2022-09-17T03:56:43;11.20;55.20
9425;DHT22;17139;52.140;11.636;2022-09-17T03:59:10;11.10;55.10
9425;DHT22;17139;52.140;11.636;2022-09-17T04:01:37;11.10;55.20
9425;DHT22;17139;52.140;11.636;2022-09-17T04:04:04;11.10;55.90
9425;DHT22;17139;52.140;11.636;2022-09-17T04:06:32;11.10;55.00
9425;DHT22;17139;52.140;11.636;2022-09-17T04:08:59;11.10;55.20
9425;DHT22;17139;52.140;11.636;2022-09-17T04:11:28;11.10;55.10
9425;DHT22;17139;52.140;11.636;2022-09-17T04:13:57;11.10;55.10
9425;DHT22;17139;52.140;11.636;2022-09-17T04:16:24;11.10;55.00
9425;DHT22;17139;52.140;11.636;2022-09-17T04:18:50;11.10;55.00
9425;DHT22;17139;52.140;11.636;2022-09-17T04:21:17;11.10;55.10
9425;DHT22;17139;52.140;11.636;2022-09-17T04:23:45;11.10;55.10
9425;DHT22;17139;52.140;11.636;2022-09-17T04:26:12;11.10;55.00
9425;DHT22;17139;52.140;11.636;2022-09-17T04:28:39;11.10;55.00
9425;DHT22;17139;52.140;11.636;2022-09-17T04:31:07;11.10;55.00
9425;DHT22;17139;52.140;11.636;2022-09-17T04:33:34;11.00;55.00
9425;DHT22;17139;52.140;11.636;2022-09-17T04:36:02;11.20;55.20
9425;DHT22;17139;52.140;11.636;2022-09-17T04:38:29;11.20;54.80
9425;DHT22;17139;52.140;11.636;2022-09-17T04:40:58;11.10;54.90
9425;DHT22;17139;52.140;11.636;2022-09-17T04:43:25;11.10;55.00
9425;DHT22;17139;52.140;11.636;2022-09-17T04:45:52;11.10;55.70
9425;DHT22;17139;52.140;11.636;2022-09-17T04:48:21;11.00;55.00
9425;DHT22;17139;52.140;11.636;2022-09-17T04:50:48;11.00;55.10
9425;DHT22;17139;52.140;11.636;2022-09-17T04:53:14;11.10;55.20
9425;DHT22;17139;52.140;11.636;2022-09-17T04:55:42;11.10;55.10
9425;DHT22;17139;52.140;11.636;2022-09-17T04:58:09;11.10;55.10
9425;DHT22;17139;52.140;11.636;2022-09-17T05:00:36;11.10;55.10
9425;DHT22;17139;52.140;11.636;2022-09-17T05:03:03;11.10;55.20
9425;DHT22;17139;52.140;11.636;2022-09-17T05:05:31;11.10;55.10
9425;DHT22;17139;52.140;11.636;2022-09-17T05:07:58;11.20;55.10
9425;DHT22;17139;52.140;11.636;2022-09-17T05:10:25;11.20;55.10
9425;DHT22;17139;52.140;11.636;2022-09-17T05:12:53;11.10;55.00
9425;DHT22;17139;52.140;11.636;2022-09-17T05:15:22;11.20;55.10
9425;DHT22;17139;52.140;11.636;2022-09-17T05:17:49;11.20;55.10
9425;DHT22;17139;52.140;11.636;2022-09-17T05:20:16;11.20;55.00
9425;DHT22;17139;52.140;11.636;2022-09-17T05:22:46;11.20;55.00
9425;DHT22;17139;52.140;11.636;2022-09-17T05:25:15;11.20;55.00
9425;DHT22;17139;52.140;11.636;2022-09-17T05:27:42;11.80;55.60
9425;DHT22;17139;52.140;11.636;2022-09-17T05:30:10;11.70;54.80
9425;DHT22;17139;52.140;11.636;2022-09-17T05:32:38;12.30;55.10
9425;DHT22;17139;52.140;11.636;2022-09-17T05:35:06;12.60;55.00
9425;DHT22;17139;52.140;11.636;2022-09-17T05:37:33;12.40;54.50
9425;DHT22;17139;52.140;11.636;2022-09-17T05:40:01;12.20;54.80
9425;DHT22;17139;52.140;11.636;2022-09-17T05:42:29;12.10;55.00
9425;DHT22;17139;52.140;11.636;2022-09-17T05:44:56;12.20;55.10
9425;DHT22;17139;52.140;11.636;2022-09-17T05:47:22;12.90;54.30
9425;DHT22;17139;52.140;11.636;2022-09-17T05:49:49;12.90;54.10
9425;DHT22;17139;52.140;11.636;2022-09-17T05:52:16;12.60;54.10
9425;DHT22;17139;52.140;11.636;2022-09-17T05:54:44;12.70;54.80
9425;DHT22;17139;52.140;11.636;2022-09-17T05:57:13;12.60;54.60
9425;DHT22;17139;52.140;11.636;2022-09-17T05:59:40;12.40;54.70
9425;DHT22;17139;52.140;11.636;2022-09-17T06:02:10;12.30;55.00
9425;DHT22;17139;52.140;11.636;2022-09-17T06:04:39;12.30;55.20
9425;DHT22;17139;52.140;11.636;2022-09-17T06:07:07;12.20;55.80
9425;DHT22;17139;52.140;11.636;2022-09-17T06:09:34;12.20;55.20
9425;DHT22;17139;52.140;11.636;2022-09-17T06:12:02;12.20;55.10
9425;DHT22;17139;52.140;11.636;2022-09-17T06:14:30;12.20;55.10
9425;DHT22;17139;52.140;11.636;2022-09-17T06:16:58;12.80;54.90
9425;DHT22;17139;52.140;11.636;2022-09-17T06:19:26;12.60;54.40
9425;DHT22;17139;52.140;11.636;2022-09-17T06:21:53;13.00;54.10
9425;DHT22;17139;52.140;11.636;2022-09-17T06:24:20;12.60;53.80
9425;DHT22;17139;52.140;11.636;2022-09-17T06:26:47;12.40;54.40
9425;DHT22;17139;52.140;11.636;2022-09-17T06:29:14;12.20;54.70
9425;DHT22;17139;52.140;11.636;2022-09-17T06:31:42;12.20;55.10
9425;DHT22;17139;52.140;11.636;2022-09-17T06:34:09;12.20;55.10
9425;DHT22;17139;52.140;11.636;2022-09-17T06:36:36;12.30;55.10
9425;DHT22;17139;52.140;11.636;2022-09-17T06:39:03;12.40;55.10
9425;DHT22;17139;52.140;11.636;2022-09-17T06:41:30;12.40;55.00
9425;DHT22;17139;52.140;11.636;2022-09-17T06:43:57;13.10;54.80
9425;DHT22;17139;52.140;11.636;2022-09-17T06:46:24;12.90;54.10
9425;DHT22;17139;52.140;11.636;2022-09-17T06:48:53;13.30;53.90
9425;DHT22;17139;52.140;11.636;2022-09-17T06:51:20;13.00;53.80
9425;DHT22;17139;52.140;11.636;2022-09-17T06:53:47;12.70;54.20
9425;DHT22;17139;52.140;11.636;2022-09-17T06:56:14;12.50;54.60
9425;DHT22;17139;52.140;11.636;2022-09-17T06:58:42;12.40;54.70
9425;DHT22;17139;52.140;11.636;2022-09-17T07:01:09;12.30;54.90
9425;DHT22;17139;52.140;11.636;2022-09-17T07:03:37;12.40;55.00
9425;DHT22;17139;52.140;11.636;2022-09-17T07:06:07;12.40;55.00
9425;DHT22;17139;52.140;11.636;2022-09-17T07:08:35;12.40;54.90
9425;DHT22;17139;52.140;11.636;2022-09-17T07:11:02;13.10;53.80
9425;DHT22;17139;52.140;11.636;2022-09-17T07:13:29;12.80;53.80
9425;DHT22;17139;52.140;11.636;2022-09-17T07:15:57;12.50;54.10
9425;DHT22;17139;52.140;11.636;2022-09-17T07:18:25;12.40;54.50
9425;DHT22;17139;52.140;11.636;2022-09-17T07:20:52;12.30;54.80
9425;DHT22;17139;52.140;11.636;2022-09-17T07:23:22;12.40;54.90
9425;DHT22;17139;52.140;11.636;2022-09-17T07:25:53;12.30;54.70
9425;DHT22;17139;52.140;11.636;2022-09-17T07:28:21;12.40;54.70
9425;DHT22;17139;52.140;11.636;2022-09-17T07:30:48;12.30;54.70
9425;DHT22;17139;52.140;11.636;2022-09-17T07:33:22;12.30;54.80
9425;DHT22;17139;52.140;11.636;2022-09-17T07:35:53;12.90;54.20
9425;DHT22;17139;52.140;11.636;2022-09-17T07:38:22;12.90;54.10
9425;DHT22;17139;52.140;11.636;2022-09-17T07:40:54;12.80;54.10
9425;DHT22;17139;52.140;11.636;2022-09-17T07:43:22;12.80;54.40
9425;DHT22;17139;52.140;11.636;2022-09-17T07:45:50;12.80;54.40
9425;DHT22;17139;52.140;11.636;2022-09-17T07:48:17;12.90;54.40
9425;DHT22;17139;52.140;11.636;2022-09-17T07:50:44;12.90;54.40
9425;DHT22;17139;52.140;11.636;2022-09-17T07:53:11;12.80;54.50
9425;DHT22;17139;52.140;11.636;2022-09-17T07:55:40;12.80;54.50
9425;DHT22;17139;52.140;11.636;2022-09-17T07:58:07;13.30;54.40
9425;DHT22;17139;52.140;11.636;2022-09-17T08:00:34;13.90;53.50
9425;DHT22;17139;52.140;11.636;2022-09-17T08:03:01;13.90;53.20
9425;DHT22;17139;52.140;11.636;2022-09-17T08:05:28;13.70;53.50
9425;DHT22;17139;52.140;11.636;2022-09-17T08:07:55;13.40;53.80
9425;DHT22;17139;52.140;11.636;2022-09-17T08:10:22;13.40;54.00
9425;DHT22;17139;52.140;11.636;2022-09-17T08:12:54;13.20;54.10
9425;DHT22;17139;52.140;11.636;2022-09-17T08:15:22;13.00;54.20
9425;DHT22;17139;52.140;11.636;2022-09-17T08:17:49;12.90;54.70
9425;DHT22;17139;52.140;11.636;2022-09-17T08:20:16;13.60;54.10
9425;DHT22;17139;52.140;11.636;2022-09-17T08:22:43;13.50;53.80
9425;DHT22;17139;52.140;11.636;2022-09-17T08:25:11;13.50;54.10
9425;DHT22;17139;52.140;11.636;2022-09-17T08:27:37;13.40;54.40
9425;DHT22;17139;52.140;11.636;2022-09-17T08:30:07;13.40;54.50
9425;DHT22;17139;52.140;11.636;2022-09-17T08:32:34;13.50;54.60
9425;DHT22;17139;52.140;11.636;2022-09-17T08:35:02;13.50;54.60
9425;DHT22;17139;52.140;11.636;2022-09-17T08:37:29;13.50;54.60
9425;DHT22;17139;52.140;11.636;2022-09-17T08:39:56;13.50;54.60
9425;DHT22;17139;52.140;11.636;2022-09-17T08:42:29;13.90;53.80
9425;DHT22;17139;52.140;11.636;2022-09-17T08:44:58;13.80;53.80
9425;DHT22;17139;52.140;11.636;2022-09-17T08:47:33;14.20;52.90
9425;DHT22;17139;52.140;11.636;2022-09-17T08:50:03;14.00;53.40
9425;DHT22;17139;52.140;11.636;2022-09-17T08:53:05;13.80;53.80
9425;DHT22;17139;52.140;11.636;2022-09-17T08:55:39;13.70;54.10
9425;DHT22;17139;52.140;11.636;2022-09-17T08:58:38;13.60;54.60
9425;DHT22;17139;52.140;11.636;2022-09-17T09:01:16;13.70;54.50
9425;DHT22;17139;52.140;11.636;2022-09-17T09:04:00;13.70;54.60
9425;DHT22;17139;52.140;11.636;2022-09-17T09:06:33;13.80;54.20
9425;DHT22;17139;52.140;11.636;2022-09-17T09:09:05;13.90;54.90
9425;DHT22;17139;52.140;11.636;2022-09-17T09:11:37;14.30;53.50
9425;DHT22;17139;52.140;11.636;2022-09-17T09:14:11;14.20;53.50
9425;DHT22;17139;52.140;11.636;2022-09-17T09:16:42;14.30;53.70
9425;DHT22;17139;52.140;11.636;2022-09-17T09:19:20;14.30;53.70
9425;DHT22;17139;52.140;11.636;2022-09-17T09:21:59;14.30;53.70
9425;DHT22;17139;52.140;11.636;2022-09-17T09:24:36;14.20;53.80
9425;DHT22;17139;52.140;11.636;2022-09-17T09:27:14;14.30;53.90
9425;DHT22;17139;52.140;11.636;2022-09-17T09:29:47;14.20;53.90
9425;DHT22;17139;52.140;11.636;2022-09-17T09:32:27;15.00;52.10
9425;DHT22;17139;52.140;11.636;2022-09-17T09:35:15;14.80;52.60
9425;DHT22;17139;52.140;11.636;2022-09-17T09:37:43;14.70;53.10
9425;DHT22;17139;52.140;11.636;2022-09-17T09:40:22;14.50;53.40
9425;DHT22;17139;52.140;11.636;2022-09-17T09:42:53;14.50;53.60
9425;DHT22;17139;52.140;11.636;2022-09-17T09:45:31;14.60;53.70
9425;DHT22;17139;52.140;11.636;2022-09-17T09:48:04;14.60;53.30
9425;DHT22;17139;52.140;11.636;2022-09-17T09:50:40;14.60;53.40
9425;DHT22;17139;52.140;11.636;2022-09-17T09:53:19;14.60;53.60
9425;DHT22;17139;52.140;11.636;2022-09-17T09:56:00;14.70;52.60
9425;DHT22;17139;52.140;11.636;2022-09-17T09:58:34;14.60;53.20
9425;DHT22;17139;52.140;11.636;2022-09-17T10:01:02;15.00;51.70
9425;DHT22;17139;52.140;11.636;2022-09-17T10:03:31;14.80;52.40
9425;DHT22;17139;52.140;11.636;2022-09-17T10:06:01;14.70;53.00
9425;DHT22;17139;52.140;11.636;2022-09-17T10:08:31;14.70;53.30
9425;DHT22;17139;52.140;11.636;2022-09-17T10:11:00;14.70;52.60
9425;DHT22;17139;52.140;11.636;2022-09-17T10:13:29;14.60;52.90
9425;DHT22;17139;52.140;11.636;2022-09-17T10:15:56;14.40;53.10
9425;DHT22;17139;52.140;11.636;2022-09-17T10:18:33;14.30;53.40
9425;DHT22;17139;52.140;11.636;2022-09-17T10:21:01;14.20;53.60
9425;DHT22;17139;52.140;11.636;2022-09-17T10:23:31;14.40;53.00
9425;DHT22;17139;52.140;11.636;2022-09-17T10:26:02;14.40;53.00
9425;DHT22;17139;52.140;11.636;2022-09-17T10:28:37;14.30;53.00
9425;DHT22;17139;52.140;11.636;2022-09-17T10:31:07;14.30;53.20
9425;DHT22;17139;52.140;11.636;2022-09-17T10:33:39;14.50;53.40
9425;DHT22;17139;52.140;11.636;2022-09-17T10:36:11;14.70;53.10
9425;DHT22;17139;52.140;11.636;2022-09-17T10:38:40;14.70;52.80
9425;DHT22;17139;52.140;11.636;2022-09-17T10:41:13;14.80;52.70
9425;DHT22;17139;52.140;11.636;2022-09-17T10:43:41;15.10;51.80
9425;DHT22;17139;52.140;11.636;2022-09-17T10:46:15;15.20;52.10
9425;DHT22;17139;52.140;11.636;2022-09-17T10:48:45;15.60;51.00
9425;DHT22;17139;52.140;11.636;2022-09-17T10:51:22;15.50;51.40
9425;DHT22;17139;52.140;11.636;2022-09-17T10:54:14;15.40;51.70
9425;DHT22;17139;52.140;11.636;2022-09-17T10:56:46;15.40;52.10
9425;DHT22;17139;52.140;11.636;2022-09-17T10:59:44;15.40;52.10
9425;DHT22;17139;52.140;11.636;2022-09-17T11:02:58;15.30;52.10
9425;DHT22;17139;52.140;11.636;2022-09-17T11:05:46;15.20;52.50
9425;DHT22;17139;52.140;11.636;2022-09-17T11:08:19;15.20;52.40
9425;DHT22;17139;52.140;11.636;2022-09-17T11:10:55;15.90;49.50
9425;DHT22;17139;52.140;11.636;2022-09-17T11:13:32;15.40;50.60
9425;DHT22;17139;52.140;11.636;2022-09-17T11:16:26;15.00;51.40
9425;DHT22;17139;52.140;11.636;2022-09-17T11:18:59;14.60;52.00
9425;DHT22;17139;52.140;11.636;2022-09-17T11:21:39;14.30;52.60
9425;DHT22;17139;52.140;11.636;2022-09-17T11:24:38;14.20;53.00
9425;DHT22;17139;52.140;11.636;2022-09-17T11:27:24;14.10;53.70
9425;DHT22;17139;52.140;11.636;2022-09-17T11:30:13;14.00;53.20
9425;DHT22;17139;52.140;11.636;2022-09-17T11:33:08;14.20;53.20
9425;DHT22;17139;52.140;11.636;2022-09-17T11:35:44;14.40;52.60
9425;DHT22;17139;52.140;11.636;2022-09-17T11:38:15;14.50;52.70
9425;DHT22;17139;52.140;11.636;2022-09-17T11:40:46;15.10;50.80
9425;DHT22;17139;52.140;11.636;2022-09-17T11:43:21;15.10;51.50
9425;DHT22;17139;52.140;11.636;2022-09-17T11:45:56;15.10;51.50
9425;DHT22;17139;52.140;11.636;2022-09-17T11:48:31;14.90;51.80
9425;DHT22;17139;52.140;11.636;2022-09-17T11:51:04;14.90;52.20
9425;DHT22;17139;52.140;11.636;2022-09-17T11:53:36;14.90;52.20
9425;DHT22;17139;52.140;11.636;2022-09-17T11:56:14;15.00;52.10
9425;DHT22;17139;52.140;11.636;2022-09-17T11:58:46;15.00;52.20
9425;DHT22;17139;52.140;11.636;2022-09-17T12:01:18;15.30;51.00
9425;DHT22;17139;52.140;11.636;2022-09-17T12:03:52;15.40;51.40
9425;DHT22;17139;52.140;11.636;2022-09-17T12:06:24;16.00;49.10
9425;DHT22;17139;52.140;11.636;2022-09-17T12:08:58;15.90;50.50
9425;DHT22;17139;52.140;11.636;2022-09-17T12:11:33;15.70;50.90
9425;DHT22;17139;52.140;11.636;2022-09-17T12:14:05;15.60;51.20
9425;DHT22;17139;52.140;11.636;2022-09-17T12:16:37;15.50;51.50
9425;DHT22;17139;52.140;11.636;2022-09-17T12:19:11;15.40;51.70
9425;DHT22;17139;52.140;11.636;2022-09-17T12:21:42;15.50;51.80
9425;DHT22;17139;52.140;11.636;2022-09-17T12:24:16;15.50;51.70
9425;DHT22;17139;52.140;11.636;2022-09-17T12:27:00;15.80;49.90
9425;DHT22;17139;52.140;11.636;2022-09-17T12:35:35;15.80;50.30
9425;DHT22;17139;52.140;11.636;2022-09-17T12:38:16;15.70;50.70
9425;DHT22;17139;52.140;11.636;2022-09-17T12:40:51;15.80;51.20
9425;DHT22;17139;52.140;11.636;2022-09-17T12:43:38;16.00;51.10
9425;DHT22;17139;52.140;11.636;2022-09-17T12:46:19;16.00;50.60
9425;DHT22;17139;52.140;11.636;2022-09-17T12:49:06;15.70;50.30
9425;DHT22;17139;52.140;11.636;2022-09-17T12:51:53;15.20;50.60
9425;DHT22;17139;52.140;11.636;2022-09-17T12:54:51;15.50;49.10
9425;DHT22;17139;52.140;11.636;2022-09-17T12:57:31;14.90;50.40
9425;DHT22;17139;52.140;11.636;2022-09-17T13:00:07;15.50;48.70
9425;DHT22;17139;52.140;11.636;2022-09-17T13:02:39;15.00;49.60
9425;DHT22;17139;52.140;11.636;2022-09-17T13:11:28;14.40;50.90
9425;DHT22;17139;52.140;11.636;2022-09-17T13:14:04;14.50;51.50
9425;DHT22;17139;52.140;11.636;2022-09-17T13:16:39;14.60;50.80
9425;DHT22;17139;52.140;11.636;2022-09-17T13:19:18;14.50;50.10
9425;DHT22;17139;52.140;11.636;2022-09-17T13:21:51;14.50;50.40
9425;DHT22;17139;52.140;11.636;2022-09-17T13:24:21;14.70;49.80
9425;DHT22;17139;52.140;11.636;2022-09-17T13:26:50;14.70;50.00
9425;DHT22;17139;52.140;11.636;2022-09-17T13:32:42;14.30;50.50
9425;DHT22;17139;52.140;11.636;2022-09-17T13:35:46;14.10;50.90
9425;DHT22;17139;52.140;11.636;2022-09-17T13:38:15;14.00;51.10
9425;DHT22;17139;52.140;11.636;2022-09-17T13:40:44;13.90;51.40
9425;DHT22;17139;52.140;11.636;2022-09-17T13:43:13;13.90;51.20
9425;DHT22;17139;52.140;11.636;2022-09-17T13:46:16;14.20;50.40
9425;DHT22;17139;52.140;11.636;2022-09-17T13:48:56;14.20;50.60
9425;DHT22;17139;52.140;11.636;2022-09-17T13:51:45;14.80;49.30
9425;DHT22;17139;52.140;11.636;2022-09-17T13:54:14;14.60;49.90
9425;DHT22;17139;52.140;11.636;2022-09-17T13:56:46;14.50;50.40
9425;DHT22;17139;52.140;11.636;2022-09-17T13:59:17;14.40;50.70
9425;DHT22;17139;52.140;11.636;2022-09-17T14:02:02;14.40;50.90
9425;DHT22;17139;52.140;11.636;2022-09-17T14:04:45;14.30;50.80
9425;DHT22;17139;52.140;11.636;2022-09-17T14:07:34;14.20;50.70
9425;DHT22;17139;52.140;11.636;2022-09-17T14:10:33;14.20;50.80
9425;DHT22;17139;52.140;11.636;2022-09-17T14:13:26;14.70;50.20
9425;DHT22;17139;52.140;11.636;2022-09-17T14:16:00;14.50;50.10
9425;DHT22;17139;52.140;11.636;2022-09-17T14:18:41;14.40;50.70
9425;DHT22;17139;52.140;11.636;2022-09-17T14:21:24;14.30;50.80
9425;DHT22;17139;52.140;11.636;2022-09-17T14:23:56;14.10;50.70
9425;DHT22;17139;52.140;11.636;2022-09-17T14:26:57;13.90;51.10
9425;DHT22;17139;52.140;11.636;2022-09-17T14:29:37;13.70;51.10
9425;DHT22;17139;52.140;11.636;2022-09-17T14:32:12;13.30;51.50
9425;DHT22;17139;52.140;11.636;2022-09-17T14:34:41;13.10;52.00
9425;DHT22;17139;52.140;11.636;2022-09-17T14:37:11;13.00;52.40
9425;DHT22;17139;52.140;11.636;2022-09-17T14:39:39;12.90;52.30
9425;DHT22;17139;52.140;11.636;2022-09-17T14:42:13;12.80;52.30
9425;DHT22;17139;52.140;11.636;2022-09-17T14:44:56;12.70;52.30
9425;DHT22;17139;52.140;11.636;2022-09-17T14:47:24;12.60;52.20
9425;DHT22;17139;52.140;11.636;2022-09-17T14:49:52;12.50;52.30
9425;DHT22;17139;52.140;11.636;2022-09-17T14:52:26;12.50;52.40
9425;DHT22;17139;52.140;11.636;2022-09-17T14:55:14;12.50;52.30
9425;DHT22;17139;52.140;11.636;2022-09-17T14:57:43;12.40;52.30
9425;DHT22;17139;52.140;11.636;2022-09-17T15:00:16;12.40;52.50
9425;DHT22;17139;52.140;11.636;2022-09-17T15:02:52;12.30;52.40
9425;DHT22;17139;52.140;11.636;2022-09-17T15:05:26;12.80;51.80
9425;DHT22;17139;52.140;11.636;2022-09-17T15:08:11;12.50;51.70
9425;DHT22;17139;52.140;11.636;2022-09-17T15:10:48;13.00;51.20
9425;DHT22;17139;52.140;11.636;2022-09-17T15:13:17;12.70;51.60
9425;DHT22;17139;52.140;11.636;2022-09-17T15:16:00;13.00;51.40
9425;DHT22;17139;52.140;11.636;2022-09-17T15:18:35;12.50;51.50
9425;DHT22;17139;52.140;11.636;2022-09-17T15:21:09;12.10;52.10
9425;DHT22;17139;52.140;11.636;2022-09-17T15:23:42;11.80;52.60
9425;DHT22;17139;52.140;11.636;2022-09-17T15:26:11;12.00;52.90
9425;DHT22;17139;52.140;11.636;2022-09-17T15:28:41;11.80;52.40
9425;DHT22;17139;52.140;11.636;2022-09-17T15:31:14;12.30;52.60
9425;DHT22;17139;52.140;11.636;2022-09-17T15:33:42;12.10;52.40
9425;DHT22;17139;52.140;11.636;2022-09-17T15:36:20;11.80;52.70
9425;DHT22;17139;52.140;11.636;2022-09-17T15:38:49;11.70;53.00
9425;DHT22;17139;52.140;11.636;2022-09-17T15:41:27;11.60;53.10
9425;DHT22;17139;52.140;11.636;2022-09-17T15:44:06;11.70;53.20
9425;DHT22;17139;52.140;11.636;2022-09-17T15:46:33;11.70;53.10
9425;DHT22;17139;52.140;11.636;2022-09-17T15:49:01;11.60;53.10
9425;DHT22;17139;52.140;11.636;2022-09-17T15:51:30;12.10;53.40
9425;DHT22;17139;52.140;11.636;2022-09-17T15:54:00;11.90;52.70
9425;DHT22;17139;52.140;11.636;2022-09-17T15:56:30;12.40;52.90
9425;DHT22;17139;52.140;11.636;2022-09-17T15:59:00;12.00;52.50
9425;DHT22;17139;52.140;11.636;2022-09-17T16:01:49;11.80;53.10
9425;DHT22;17139;52.140;11.636;2022-09-17T16:07:35;11.40;53.50
9425;DHT22;17139;52.140;11.636;2022-09-17T16:10:05;11.30;53.60
9425;DHT22;17139;52.140;11.636;2022-09-17T16:12:33;11.30;53.80
9425;DHT22;17139;52.140;11.636;2022-09-17T16:15:01;11.30;53.70
9425;DHT22;17139;52.140;11.636;2022-09-17T16:17:31;11.30;53.60
9425;DHT22;17139;52.140;11.636;2022-09-17T16:20:05;11.40;53.60
9425;DHT22;17139;52.140;11.636;2022-09-17T16:22:33;11.30;53.50
9425;DHT22;17139;52.140;11.636;2022-09-17T16:25:00;11.20;54.10